createdAt,value
2022-10-26T00:02:01.507Z,4.35
2022-10-26T00:05:28.299Z,4.53
2022-10-26T00:08:31.437Z,4.47
2022-10-26T00:11:35.670Z,4.00
2022-10-26T00:14:39.985Z,4.27
2022-10-26T00:17:48.390Z,4.10
2022-10-26T00:20:56.344Z,4.60
2022-10-26T00:24:04.501Z,4.53
2022-10-26T00:27:18.296Z,5.00
2022-10-26T00:30:42.443Z,5.00
2022-10-26T00:34:04.437Z,4.85
2022-10-26T00:37:27.208Z,4.35
2022-10-26T00:40:44.418Z,4.97
2022-10-26T00:44:05.738Z,4.83
2022-10-26T00:47:39.482Z,4.60
2022-10-26T00:50:56.305Z,5.05
2022-10-26T00:54:23.243Z,4.35
2022-10-26T00:58:05.485Z,4.50
2022-10-26T01:01:12.406Z,4.70
2022-10-26T01:04:16.985Z,5.00
2022-10-26T01:07:28.245Z,6.80
2022-10-26T01:10:54.168Z,7.07
2022-10-26T01:14:33.775Z,6.55
2022-10-26T01:17:57.393Z,6.27
2022-10-26T01:21:28.389Z,7.07
2022-10-26T01:25:12.278Z,6.53
2022-10-26T01:28:51.777Z,7.03
2022-10-26T01:32:22.941Z,6.82
2022-10-26T01:35:52.994Z,6.73
2022-10-26T01:39:11.141Z,7.03
2022-10-26T01:42:24.780Z,6.38
2022-10-26T01:45:48.058Z,5.97
2022-10-26T01:49:09.996Z,6.78
2022-10-26T01:52:31.830Z,7.90
2022-10-26T01:55:50.960Z,7.40
2022-10-26T01:59:08.029Z,7.30
2022-10-26T02:02:36.650Z,6.78
2022-10-26T02:06:10.996Z,6.50
2022-10-26T02:09:31.990Z,6.37
2022-10-26T02:13:15.093Z,6.50
2022-10-26T02:16:43.265Z,6.78
2022-10-26T02:20:07.558Z,6.75
2022-10-26T02:23:24.520Z,5.90
2022-10-26T02:26:32.631Z,5.40
2022-10-26T02:29:40.928Z,5.97
2022-10-26T02:32:58.074Z,6.60
2022-10-26T02:36:12.043Z,6.43
2022-10-26T02:39:31.523Z,6.28
2022-10-26T02:43:03.855Z,8.23
2022-10-26T02:46:26.018Z,6.50
2022-10-26T02:49:49.957Z,7.00
2022-10-26T02:53:21.004Z,7.07
2022-10-26T02:57:15.312Z,6.63
2022-10-26T03:00:21.815Z,6.83
2022-10-26T03:03:25.966Z,6.57
2022-10-26T03:06:40.231Z,6.47
2022-10-26T03:10:03.936Z,6.38
2022-10-26T03:13:25.889Z,6.43
2022-10-26T03:16:46.986Z,5.93
2022-10-26T03:20:05.028Z,5.90
2022-10-26T03:23:26.893Z,7.32
2022-10-26T03:26:49.019Z,6.45
2022-10-26T03:30:05.747Z,6.60
2022-10-26T03:33:31.373Z,5.90
2022-10-26T03:37:01.053Z,6.17
2022-10-26T03:40:21.282Z,6.72
2022-10-26T03:43:49.009Z,8.18
2022-10-26T03:47:04.993Z,10.52
2022-10-26T03:50:25.985Z,9.27
2022-10-26T03:53:48.919Z,10.30
2022-10-26T03:57:05.942Z,8.57
2022-10-26T04:00:31.927Z,9.88
2022-10-26T04:03:49.957Z,9.02
2022-10-26T04:07:12.971Z,8.80
2022-10-26T04:10:27.959Z,6.93
2022-10-26T04:13:50.831Z,8.18
2022-10-26T04:17:14.844Z,8.20
2022-10-26T04:20:41.692Z,8.75
2022-10-26T04:24:01.981Z,9.80
2022-10-26T04:27:15.029Z,8.67
2022-10-26T04:30:19.367Z,9.43
2022-10-26T04:33:32.682Z,9.35
2022-10-26T04:36:50.539Z,9.90
2022-10-26T04:43:23.970Z,10.63
2022-10-26T04:46:46.620Z,10.45
2022-10-26T04:50:23.732Z,9.52
2022-10-26T04:53:44.603Z,9.35
2022-10-26T04:57:06.653Z,8.60
2022-10-26T05:00:30.533Z,9.47
2022-10-26T05:03:54.101Z,10.30
2022-10-26T05:07:16.750Z,10.85
2022-10-26T05:10:19.688Z,11.15
2022-10-26T05:13:24.781Z,11.53
2022-10-26T05:16:58.205Z,13.07
2022-10-26T05:20:36.688Z,12.55
2022-10-26T05:27:28.238Z,13.63
2022-10-26T05:30:49.743Z,13.03
2022-10-26T05:34:08.049Z,14.10
2022-10-26T05:37:27.773Z,14.85
2022-10-26T05:40:54.029Z,14.07
2022-10-26T05:44:00.465Z,15.70
2022-10-26T05:47:26.952Z,14.33
2022-10-26T05:50:50.614Z,15.40
2022-10-26T05:54:40.422Z,17.00
2022-10-26T05:57:49.176Z,16.42
2022-10-26T06:01:03.535Z,15.32
2022-10-26T06:09:28.998Z,16.17
2022-10-26T06:12:52.773Z,16.17
2022-10-26T06:16:22.202Z,15.80
2022-10-26T06:20:07.180Z,14.73
2022-10-26T06:23:51.405Z,15.53
2022-10-26T06:27:58.328Z,15.97
2022-10-26T06:31:22.086Z,15.82
2022-10-26T06:34:39.236Z,17.15
2022-10-26T06:37:55.925Z,16.55
2022-10-26T06:41:03.886Z,17.70
2022-10-26T06:44:23.846Z,40.47
2022-10-26T06:59:53.681Z,17.13
2022-10-26T07:02:59.185Z,15.77
2022-10-26T07:06:24.176Z,15.83
2022-10-26T07:10:00.155Z,15.70
2022-10-26T07:13:37.418Z,17.48
2022-10-26T07:17:13.548Z,17.35
2022-10-26T07:20:52.091Z,16.80
2022-10-26T07:24:08.931Z,16.80
2022-10-26T07:27:11.820Z,17.15
2022-10-26T07:30:14.776Z,18.25
2022-10-26T07:33:17.536Z,17.30
2022-10-26T07:36:20.512Z,17.27
2022-10-26T07:39:23.929Z,17.87
2022-10-26T07:42:32.054Z,17.52
2022-10-26T07:45:36.849Z,20.85
2022-10-26T07:48:42.245Z,23.08
2022-10-26T07:51:58.659Z,37.73
2022-10-26T07:55:10.243Z,89.73
2022-10-26T07:58:13.611Z,25.20
2022-10-26T08:01:16.662Z,18.50
2022-10-26T08:04:20.014Z,18.23
2022-10-26T08:07:23.252Z,17.97
2022-10-26T08:10:27.761Z,17.90
2022-10-26T08:13:32.349Z,18.00
2022-10-26T08:16:35.628Z,17.50
2022-10-26T08:19:38.882Z,15.88
2022-10-26T08:27:53.512Z,15.47
2022-10-26T08:31:01.928Z,15.55
2022-10-26T08:34:12.975Z,15.57
2022-10-26T08:43:23.828Z,24.87
2022-10-26T08:46:40.569Z,15.13
2022-10-26T08:50:05.469Z,14.75
2022-10-26T08:53:37.421Z,13.35
2022-10-26T08:56:53.657Z,13.30
2022-10-26T09:00:36.319Z,13.53
2022-10-26T09:03:45.509Z,13.37
2022-10-26T09:07:04.949Z,12.05
2022-10-26T09:10:23.547Z,11.57
2022-10-26T09:13:35.311Z,12.10
2022-10-26T09:16:38.189Z,12.47
2022-10-26T09:19:51.229Z,13.03
2022-10-26T09:23:09.720Z,12.57
2022-10-26T09:26:17.528Z,11.57
2022-10-26T09:29:36.564Z,13.02
2022-10-26T09:38:45.826Z,12.67
2022-10-26T09:42:12.030Z,12.75
2022-10-26T09:45:55.087Z,12.85
2022-10-26T09:50:02.172Z,14.38
2022-10-26T09:59:40.761Z,9.90
2022-10-26T10:02:49.326Z,10.32
2022-10-26T10:05:59.647Z,9.18
2022-10-26T10:09:11.110Z,8.88
2022-10-26T10:12:21.253Z,8.40
2022-10-26T10:16:23.592Z,8.67
2022-10-26T10:20:34.278Z,7.47
2022-10-26T10:29:52.243Z,7.38
2022-10-26T10:33:37.058Z,7.60
2022-10-26T10:36:43.221Z,8.23
2022-10-26T10:39:48.555Z,8.43
2022-10-26T10:42:53.791Z,9.55
2022-10-26T10:46:00.577Z,9.57
2022-10-26T10:49:06.663Z,10.57
2022-10-26T10:52:25.854Z,10.43
2022-10-26T10:55:29.820Z,11.20
2022-10-26T10:58:50.484Z,10.68
2022-10-26T11:02:01.202Z,15.00
2022-10-26T11:05:23.478Z,14.10
2022-10-26T11:08:44.475Z,11.30
2022-10-26T11:12:08.046Z,11.50
2022-10-26T11:15:19.774Z,12.45
2022-10-26T11:18:34.011Z,11.63
2022-10-26T11:21:38.199Z,11.60
2022-10-26T11:24:50.035Z,11.67
2022-10-26T11:28:02.951Z,11.18
2022-10-26T11:31:14.072Z,11.95
2022-10-26T11:34:29.745Z,11.00
2022-10-26T11:37:47.007Z,12.83
2022-10-26T11:46:29.889Z,12.30
2022-10-26T11:49:57.879Z,12.77
2022-10-26T11:53:11.431Z,11.68
2022-10-26T11:56:30.835Z,12.27
2022-10-26T11:59:42.761Z,11.80
2022-10-26T12:03:02.917Z,18.63
2022-10-26T12:06:08.130Z,16.10
2022-10-26T12:09:37.799Z,14.43
2022-10-26T12:12:43.611Z,12.63
2022-10-26T12:16:02.830Z,13.03
2022-10-26T12:19:15.808Z,13.25
2022-10-26T12:22:22.287Z,14.57
2022-10-26T12:25:25.231Z,14.50
2022-10-26T12:29:09.519Z,14.27
2022-10-26T12:32:33.464Z,14.50
2022-10-26T12:35:39.148Z,13.88
2022-10-26T12:38:42.670Z,13.13
2022-10-26T12:41:56.836Z,14.55
2022-10-26T12:44:59.521Z,13.37
2022-10-26T12:48:10.756Z,14.13
2022-10-26T12:51:26.988Z,14.88
2022-10-26T12:59:31.766Z,12.75
2022-10-26T13:02:47.469Z,13.87
2022-10-26T13:06:06.135Z,14.53
2022-10-26T13:09:19.158Z,14.05
2022-10-26T13:12:27.751Z,14.52
2022-10-26T13:15:40.410Z,15.30
2022-10-26T13:19:04.382Z,13.97
2022-10-26T13:22:42.005Z,13.87
2022-10-26T13:26:15.687Z,13.95
2022-10-26T13:29:19.073Z,14.40
2022-10-26T13:32:24.715Z,13.10
2022-10-26T13:35:32.599Z,14.47
2022-10-26T13:38:37.925Z,19.73
2022-10-26T13:41:44.770Z,15.95
2022-10-26T13:44:47.777Z,13.57
2022-10-26T13:48:16.951Z,14.80
2022-10-26T13:51:32.828Z,14.70
2022-10-26T13:54:47.128Z,13.63
2022-10-26T13:58:19.021Z,14.55
2022-10-26T14:02:02.432Z,16.35
2022-10-26T14:06:23.228Z,14.50
2022-10-26T14:09:55.264Z,19.47
2022-10-26T14:12:59.393Z,14.00
2022-10-26T14:16:02.248Z,14.55
2022-10-26T14:19:06.516Z,14.52
2022-10-26T14:22:23.162Z,13.98
2022-10-26T14:25:42.652Z,13.87
2022-10-26T14:28:56.372Z,13.97
2022-10-26T14:31:59.807Z,14.90
2022-10-26T14:35:02.757Z,13.48
2022-10-26T14:38:28.071Z,13.10
2022-10-26T14:41:32.514Z,27.67
2022-10-26T14:44:37.598Z,13.03
2022-10-26T14:47:47.001Z,14.15
2022-10-26T14:51:07.950Z,14.70
2022-10-26T14:54:22.511Z,13.75
2022-10-26T14:57:35.382Z,14.13
2022-10-26T15:00:38.173Z,13.60
2022-10-26T15:03:42.026Z,14.18
2022-10-26T15:06:45.358Z,14.13
2022-10-26T15:09:51.750Z,14.60
2022-10-26T15:12:54.562Z,29.97
2022-10-26T15:16:21.219Z,16.67
2022-10-26T15:19:29.707Z,14.32
2022-10-26T15:22:34.463Z,14.63
2022-10-26T15:25:37.975Z,14.98
2022-10-26T15:28:44.594Z,14.37
2022-10-26T15:31:47.200Z,15.77
2022-10-26T15:35:11.590Z,14.30
2022-10-26T15:38:14.246Z,14.55
2022-10-26T15:41:26.530Z,13.68
2022-10-26T15:44:29.017Z,13.83
2022-10-26T15:47:34.368Z,14.37
2022-10-26T15:50:40.561Z,13.52
2022-10-26T15:53:44.777Z,13.98
2022-10-26T15:56:50.438Z,13.60
2022-10-26T15:59:53.949Z,14.23
2022-10-26T16:02:57.339Z,14.93
2022-10-26T16:06:04.823Z,15.27
2022-10-26T16:09:16.484Z,15.23
2022-10-26T16:12:19.446Z,15.20
2022-10-26T16:15:24.800Z,14.17
2022-10-26T16:18:28.818Z,15.80
2022-10-26T16:21:31.575Z,15.10
2022-10-26T16:24:34.580Z,14.65
2022-10-26T16:27:37.223Z,15.27
2022-10-26T16:33:43.883Z,14.97
2022-10-26T16:36:48.974Z,15.00
2022-10-26T16:39:51.826Z,14.93
2022-10-26T16:42:57.334Z,14.85
2022-10-26T16:46:02.536Z,15.10
2022-10-26T16:49:05.458Z,16.20
2022-10-26T16:52:11.614Z,14.50
2022-10-26T16:55:15.720Z,15.95
2022-10-26T16:58:18.492Z,14.18
2022-10-26T17:01:23.512Z,14.30
2022-10-26T17:04:32.957Z,13.83
2022-10-26T17:07:35.701Z,14.20
2022-10-26T17:10:38.788Z,15.68
2022-10-26T17:13:43.599Z,18.17
2022-10-26T17:16:47.576Z,16.10
2022-10-26T17:19:56.756Z,16.47
2022-10-26T17:22:59.559Z,16.70
2022-10-26T17:26:08.118Z,15.43
2022-10-26T17:29:13.284Z,13.57
2022-10-26T17:32:16.533Z,12.73
2022-10-26T17:35:20.468Z,12.30
2022-10-26T17:38:24.856Z,15.63
2022-10-26T17:41:28.150Z,15.82
2022-10-26T17:44:33.817Z,15.88
2022-10-26T17:47:37.547Z,14.50
2022-10-26T17:50:41.603Z,15.27
2022-10-26T17:53:47.615Z,21.52
2022-10-26T17:56:50.806Z,15.10
2022-10-26T17:59:54.539Z,14.85
2022-10-26T18:06:03.167Z,14.67
2022-10-26T18:09:10.336Z,14.77
2022-10-26T18:12:14.055Z,15.70
2022-10-26T18:15:17.529Z,14.90
2022-10-26T18:18:21.901Z,7.70
2022-10-26T18:21:27.477Z,7.10
2022-10-26T18:24:31.274Z,9.18
2022-10-26T18:27:34.228Z,9.27
2022-10-26T18:30:37.398Z,12.05
2022-10-26T18:33:41.099Z,12.73
2022-10-26T18:36:44.041Z,13.30
2022-10-26T18:39:48.132Z,14.75
2022-10-26T18:42:51.455Z,13.35
2022-10-26T18:46:03.330Z,13.25
2022-10-26T18:49:07.068Z,11.77
2022-10-26T18:52:10.302Z,12.87
2022-10-26T18:55:15.062Z,13.40
2022-10-26T18:58:17.982Z,12.00
2022-10-26T19:01:23.326Z,10.98
2022-10-26T19:04:26.416Z,11.50
2022-10-26T19:07:33.827Z,10.43
2022-10-26T19:10:38.048Z,10.95
2022-10-26T19:13:44.061Z,11.57
2022-10-26T19:16:50.781Z,11.55
2022-10-26T19:19:54.528Z,11.07
2022-10-26T19:23:02.058Z,10.37
2022-10-26T19:26:06.770Z,10.57
2022-10-26T19:29:15.126Z,11.35
2022-10-26T19:32:18.461Z,12.73
2022-10-26T19:35:22.056Z,12.40
2022-10-26T19:38:26.130Z,11.97
2022-10-26T19:41:30.406Z,12.38
2022-10-26T19:44:34.012Z,12.32
2022-10-26T19:47:36.855Z,12.63
2022-10-26T19:50:39.603Z,12.47
2022-10-26T19:53:43.263Z,12.33
2022-10-26T19:56:46.612Z,12.60
2022-10-26T19:59:50.890Z,12.23
2022-10-26T20:02:54.586Z,13.23
2022-10-26T20:05:58.990Z,13.07
2022-10-26T20:09:03.626Z,13.80
2022-10-26T20:12:07.545Z,14.68
2022-10-26T20:15:11.306Z,14.57
2022-10-26T20:18:14.650Z,14.77
2022-10-26T20:21:17.891Z,15.27
2022-10-26T20:24:21.598Z,16.20
2022-10-26T20:27:25.151Z,16.35
2022-10-26T20:30:30.258Z,15.77
2022-10-26T20:33:33.669Z,15.60
2022-10-26T20:36:37.141Z,15.63
2022-10-26T20:39:40.964Z,16.30
2022-10-26T20:42:44.258Z,16.80
2022-10-26T20:45:47.378Z,16.38
2022-10-26T20:48:52.059Z,17.10
2022-10-26T20:52:20.099Z,15.67
2022-10-26T20:55:58.192Z,16.80
2022-10-26T20:59:03.161Z,15.73
2022-10-26T21:02:10.350Z,16.15
2022-10-26T21:05:12.776Z,16.02
2022-10-26T21:08:15.358Z,16.53
2022-10-26T21:11:18.972Z,16.10
2022-10-26T21:14:21.703Z,16.23
2022-10-26T21:17:24.158Z,15.57
2022-10-26T21:20:27.218Z,16.85
2022-10-26T21:23:35.277Z,17.23
2022-10-26T21:26:38.084Z,16.33
2022-10-26T21:29:41.146Z,15.95
2022-10-26T21:32:43.766Z,15.00
2022-10-26T21:35:55.380Z,16.35
2022-10-26T21:38:57.889Z,15.47
2022-10-26T21:42:02.935Z,15.57
2022-10-26T21:45:07.261Z,15.77
2022-10-26T21:48:09.701Z,16.13
2022-10-26T21:51:14.820Z,16.02
2022-10-26T21:54:17.304Z,15.83
2022-10-26T21:57:19.849Z,17.17
2022-10-26T22:00:23.689Z,16.30
2022-10-26T22:03:26.782Z,15.70
2022-10-26T22:06:29.231Z,14.93
2022-10-26T22:09:37.274Z,15.43
2022-10-26T22:12:47.415Z,15.40
2022-10-26T22:16:02.239Z,15.98
2022-10-26T22:19:07.040Z,15.80
2022-10-26T22:22:09.513Z,15.48
2022-10-26T22:25:12.691Z,15.37
2022-10-26T22:28:15.779Z,15.90
2022-10-26T22:31:28.433Z,16.10
2022-10-26T22:34:31.768Z,15.93
2022-10-26T22:37:34.208Z,16.13
2022-10-26T22:40:37.342Z,16.70
2022-10-26T22:43:40.782Z,15.27
2022-10-26T22:46:44.270Z,16.20
2022-10-26T22:49:47.340Z,16.67
2022-10-26T22:52:50.148Z,17.02
2022-10-26T22:55:53.832Z,16.73
2022-10-26T22:58:56.859Z,16.60
2022-10-26T23:02:00.403Z,17.35
2022-10-26T23:05:03.109Z,17.23
2022-10-26T23:08:05.694Z,17.38
2022-10-26T23:11:11.016Z,17.20
2022-10-26T23:14:14.345Z,16.33
2022-10-26T23:17:16.806Z,16.92
2022-10-26T23:20:19.326Z,16.35
2022-10-26T23:23:22.391Z,17.60
2022-10-26T23:26:26.065Z,16.57
2022-10-26T23:29:29.321Z,16.37
2022-10-26T23:32:32.333Z,16.50
2022-10-26T23:35:35.358Z,17.35
2022-10-26T23:38:38.090Z,16.67
2022-10-26T23:41:40.657Z,16.77
2022-10-26T23:44:43.127Z,17.90
2022-10-26T23:47:45.700Z,16.77
2022-10-26T23:50:50.285Z,17.65
2022-10-26T23:53:54.153Z,16.73
2022-10-26T23:56:56.668Z,17.00
2022-10-26T23:59:59.957Z,17.00
